createdAt,value
2019-04-05T00:01:06.684Z,6.60
2019-04-05T00:03:34.370Z,6.50
2019-04-05T00:06:02.236Z,6.50
2019-04-05T00:08:29.911Z,6.60
2019-04-05T00:10:57.575Z,6.60
2019-04-05T00:13:25.294Z,6.50
2019-04-05T00:15:52.960Z,6.50
2019-04-05T00:18:22.455Z,6.50
2019-04-05T00:20:50.180Z,6.40
2019-04-05T00:23:17.840Z,6.50
2019-04-05T00:25:45.527Z,6.40
2019-04-05T00:28:13.222Z,6.40
2019-04-05T00:30:40.914Z,6.40
2019-04-05T00:33:08.606Z,6.40
2019-04-05T00:35:36.315Z,6.40
2019-04-05T00:38:03.972Z,6.40
2019-04-05T00:40:31.735Z,6.40
2019-04-05T00:42:59.380Z,6.40
2019-04-05T00:45:28.538Z,6.40
2019-04-05T00:47:56.555Z,6.40
2019-04-05T00:50:24.218Z,6.40
2019-04-05T00:52:51.928Z,6.40
2019-04-05T00:55:19.626Z,6.40
2019-04-05T00:57:49.493Z,6.40
2019-04-05T01:00:18.629Z,6.40
2019-04-05T01:02:46.284Z,6.40
2019-04-05T01:05:14.002Z,6.40
2019-04-05T01:07:41.659Z,6.40
2019-04-05T01:10:09.778Z,6.40
2019-04-05T01:12:39.536Z,6.40
2019-04-05T01:15:08.322Z,6.40
2019-04-05T01:17:36.473Z,6.40
2019-04-05T01:20:04.497Z,6.40
2019-04-05T01:22:33.859Z,6.40
2019-04-05T01:25:01.841Z,6.40
2019-04-05T01:27:30.023Z,6.40
2019-04-05T01:29:57.724Z,6.40
2019-04-05T01:32:25.506Z,6.40
2019-04-05T01:34:53.156Z,6.30
2019-04-05T01:37:21.032Z,6.30
2019-04-05T01:39:48.721Z,6.40
2019-04-05T01:42:16.601Z,6.40
2019-04-05T01:44:44.548Z,6.40
2019-04-05T01:47:12.327Z,6.40
2019-04-05T01:49:39.971Z,6.30
2019-04-05T01:52:07.833Z,6.40
2019-04-05T01:54:35.492Z,6.40
2019-04-05T01:57:03.139Z,6.40
2019-04-05T01:59:30.795Z,6.40
2019-04-05T02:01:58.613Z,6.40
2019-04-05T02:04:26.322Z,6.40
2019-04-05T02:06:54.047Z,6.40
2019-04-05T02:09:21.906Z,6.40
2019-04-05T02:11:49.528Z,6.40
2019-04-05T02:14:17.279Z,6.40
2019-04-05T02:16:44.914Z,6.40
2019-04-05T02:19:12.686Z,6.40
2019-04-05T02:21:40.335Z,6.40
2019-04-05T02:24:08.106Z,6.40
2019-04-05T02:26:36.005Z,6.40
2019-04-05T02:29:03.730Z,6.40
2019-04-05T02:31:31.412Z,6.40
2019-04-05T02:33:59.049Z,6.40
2019-04-05T02:36:26.735Z,6.30
2019-04-05T02:38:54.375Z,6.30
2019-04-05T02:41:25.265Z,6.30
2019-04-05T02:43:55.089Z,6.30
2019-04-05T02:46:24.510Z,6.30
2019-04-05T02:48:53.014Z,6.30
2019-04-05T02:51:22.944Z,6.30
2019-04-05T02:53:51.873Z,6.30
2019-04-05T02:56:19.919Z,6.30
2019-04-05T02:58:48.147Z,6.30
2019-04-05T03:01:16.185Z,6.30
2019-04-05T03:03:44.000Z,6.30
2019-04-05T03:06:11.626Z,6.30
2019-04-05T03:08:40.684Z,6.30
2019-04-05T03:11:15.696Z,6.30
2019-04-05T03:13:52.110Z,6.20
2019-04-05T03:16:40.930Z,6.20
2019-04-05T03:19:12.330Z,6.20
2019-04-05T03:21:43.314Z,6.20
2019-04-05T03:24:15.656Z,6.20
2019-04-05T03:26:49.123Z,6.20
2019-04-05T03:29:16.875Z,6.20
2019-04-05T03:31:44.806Z,6.10
2019-04-05T03:34:13.070Z,6.10
2019-04-05T03:36:40.823Z,6.20
2019-04-05T03:39:09.172Z,6.10
2019-04-05T03:41:36.910Z,6.20
2019-04-05T03:44:05.376Z,6.20
2019-04-05T03:46:33.423Z,6.20
2019-04-05T03:49:01.456Z,6.20
2019-04-05T03:51:29.423Z,6.20
2019-04-05T03:53:57.057Z,6.20
2019-04-05T03:56:24.927Z,6.20
2019-04-05T03:58:52.632Z,6.20
2019-04-05T04:01:20.308Z,6.20
2019-04-05T04:03:48.124Z,6.20
2019-04-05T04:06:15.972Z,6.20
2019-04-05T04:08:43.710Z,6.30
2019-04-05T04:11:11.615Z,6.20
2019-04-05T04:13:39.550Z,6.20
2019-04-05T04:16:07.640Z,6.20
2019-04-05T04:18:35.504Z,6.20
2019-04-05T04:21:31.056Z,6.20
2019-04-05T04:23:58.975Z,6.30
2019-04-05T04:26:26.669Z,6.30
2019-04-05T04:28:54.303Z,6.30
2019-04-05T04:31:22.343Z,6.30
2019-04-05T04:33:50.331Z,6.30
2019-04-05T04:36:18.078Z,6.30
2019-04-05T04:38:45.740Z,6.30
2019-04-05T04:41:14.147Z,6.30
2019-04-05T04:43:41.825Z,6.30
2019-04-05T04:46:09.553Z,6.30
2019-04-05T04:48:38.214Z,6.30
2019-04-05T04:51:06.246Z,6.30
2019-04-05T04:53:34.026Z,6.30
2019-04-05T04:56:01.785Z,6.30
2019-04-05T04:58:29.597Z,6.30
2019-04-05T05:00:57.396Z,6.30
2019-04-05T05:03:25.140Z,6.40
2019-04-05T05:05:53.326Z,6.30
2019-04-05T05:08:21.191Z,6.40
2019-04-05T05:10:49.247Z,6.40
2019-04-05T05:13:17.079Z,6.40
2019-04-05T05:15:44.906Z,6.40
2019-04-05T05:18:12.860Z,6.40
2019-04-05T05:20:42.741Z,6.40
2019-04-05T05:23:10.538Z,6.40
2019-04-05T05:25:38.387Z,6.40
2019-04-05T05:28:06.262Z,6.40
2019-04-05T05:30:34.014Z,6.40
2019-04-05T05:33:01.697Z,6.40
2019-04-05T05:35:29.556Z,6.40
2019-04-05T05:37:57.346Z,6.40
2019-04-05T05:40:34.619Z,6.50
2019-04-05T05:42:54.455Z,6.50
2019-04-05T05:45:22.088Z,6.50
2019-04-05T05:47:52.264Z,6.50
2019-04-05T05:50:19.303Z,6.50
2019-04-05T05:52:47.357Z,6.50
2019-04-05T05:55:15.008Z,6.50
2019-04-05T05:57:42.631Z,6.50
2019-04-05T06:00:12.448Z,6.50
2019-04-05T06:02:40.090Z,6.50
2019-04-05T06:05:08.151Z,6.60
2019-04-05T06:07:35.789Z,6.60
2019-04-05T06:10:03.932Z,6.60
2019-04-05T06:12:31.612Z,6.70
2019-04-05T06:14:59.183Z,6.70
2019-04-05T06:17:26.857Z,6.70
2019-04-05T06:19:54.510Z,6.70
2019-04-05T06:22:22.146Z,6.70
2019-04-05T06:24:49.802Z,6.70
2019-04-05T06:27:17.468Z,6.70
2019-04-05T06:29:45.104Z,6.70
2019-04-05T06:32:15.351Z,6.80
2019-04-05T06:34:42.979Z,6.80
2019-04-05T06:37:10.712Z,6.90
2019-04-05T06:39:38.404Z,6.90
2019-04-05T06:42:06.073Z,6.90
2019-04-05T06:44:33.729Z,7.00
2019-04-05T06:47:01.390Z,7.00
2019-04-05T06:49:29.448Z,7.00
2019-04-05T06:51:57.102Z,7.00
2019-04-05T06:54:24.759Z,7.00
2019-04-05T06:56:52.395Z,7.10
2019-04-05T06:59:20.089Z,7.10
2019-04-05T07:01:47.849Z,7.20
2019-04-05T07:04:15.649Z,7.20
2019-04-05T07:06:43.272Z,7.30
2019-04-05T07:09:10.942Z,7.30
2019-04-05T07:11:38.611Z,7.30
2019-04-05T07:14:06.244Z,7.30
2019-04-05T07:16:33.926Z,7.30
2019-04-05T07:19:01.551Z,7.40
2019-04-05T07:21:29.220Z,7.40
2019-04-05T07:23:56.889Z,7.40
2019-04-05T07:26:24.669Z,7.40
2019-04-05T07:28:52.331Z,7.40
2019-04-05T07:31:20.023Z,7.40
2019-04-05T07:33:47.671Z,7.40
2019-04-05T07:36:15.316Z,7.50
2019-04-05T07:38:42.990Z,7.50
2019-04-05T07:41:10.636Z,7.50
2019-04-05T07:43:38.322Z,7.50
2019-04-05T07:46:06.007Z,7.50
2019-04-05T07:48:44.080Z,7.40
2019-04-05T07:51:03.117Z,7.40
2019-04-05T07:53:30.763Z,7.40
2019-04-05T07:55:58.394Z,7.30
2019-04-05T07:58:26.121Z,7.30
2019-04-05T08:00:56.884Z,7.30
2019-04-05T08:03:25.038Z,7.30
2019-04-05T08:05:53.268Z,7.40
2019-04-05T08:08:43.701Z,7.40
2019-04-05T08:11:11.556Z,7.40
2019-04-05T08:13:42.823Z,7.40
2019-04-05T08:16:10.482Z,7.50
2019-04-05T08:18:38.137Z,7.50
2019-04-05T08:21:05.777Z,7.50
2019-04-05T08:23:33.417Z,7.50
2019-04-05T08:26:01.109Z,7.50
2019-04-05T08:28:29.784Z,7.40
2019-04-05T08:30:57.664Z,7.50
2019-04-05T08:33:25.261Z,7.50
2019-04-05T08:35:52.910Z,7.50
2019-04-05T08:38:20.585Z,7.50
2019-04-05T08:40:48.233Z,7.50
2019-04-05T08:43:15.910Z,7.60
2019-04-05T08:45:43.674Z,7.60
2019-04-05T08:48:11.307Z,7.60
2019-04-05T08:50:38.952Z,7.70
2019-04-05T08:53:06.623Z,7.70
2019-04-05T08:55:34.316Z,7.80
2019-04-05T08:58:01.933Z,7.80
2019-04-05T09:00:29.638Z,7.80
2019-04-05T09:02:57.376Z,7.80
2019-04-05T09:05:25.116Z,7.80
2019-04-05T09:07:52.767Z,7.90
2019-04-05T09:10:20.484Z,8.00
2019-04-05T09:12:48.104Z,8.00
2019-04-05T09:15:15.739Z,8.10
2019-04-05T09:17:43.395Z,8.10
2019-04-05T09:20:11.037Z,8.20
2019-04-05T09:22:38.725Z,8.20
2019-04-05T09:25:06.490Z,8.20
2019-04-05T09:27:34.289Z,8.20
2019-04-05T09:30:01.867Z,8.20
2019-04-05T09:32:29.500Z,8.20
2019-04-05T09:34:57.138Z,8.20
2019-04-05T09:37:24.811Z,8.20
2019-04-05T09:39:52.449Z,8.20
2019-04-05T09:42:20.246Z,8.30
2019-04-05T09:44:47.880Z,8.30
2019-04-05T09:47:15.525Z,8.30
2019-04-05T09:49:43.170Z,8.30
2019-04-05T09:52:10.880Z,8.40
2019-04-05T09:54:38.841Z,8.40
2019-04-05T09:57:06.471Z,8.40
2019-04-05T09:59:34.100Z,8.40
2019-04-05T10:02:01.823Z,8.40
2019-04-05T10:04:31.216Z,8.40
2019-04-05T10:06:58.918Z,8.40
2019-04-05T10:09:26.621Z,8.40
2019-04-05T10:11:54.263Z,8.40
2019-04-05T10:14:21.913Z,8.40
2019-04-05T10:16:49.581Z,8.50
2019-04-05T10:19:17.225Z,8.40
2019-04-05T10:21:44.879Z,8.40
2019-04-05T10:24:12.519Z,8.40
2019-04-05T10:26:40.204Z,8.40
2019-04-05T10:29:07.857Z,8.40
2019-04-05T10:31:35.526Z,8.40
2019-04-05T10:34:03.174Z,8.40
2019-04-05T10:36:30.824Z,8.40
2019-04-05T10:38:58.491Z,8.50
2019-04-05T10:41:26.163Z,8.40
2019-04-05T10:43:53.776Z,8.40
2019-04-05T10:46:21.552Z,8.40
2019-04-05T10:48:49.192Z,8.50
2019-04-05T10:51:16.824Z,8.50
2019-04-05T10:53:44.513Z,8.50
2019-04-05T10:56:12.142Z,8.50
2019-04-05T10:58:39.828Z,8.50
2019-04-05T11:01:07.606Z,8.60
2019-04-05T11:03:35.218Z,8.70
2019-04-05T11:06:02.896Z,8.70
2019-04-05T11:08:30.533Z,8.70
2019-04-05T11:10:58.211Z,8.70
2019-04-05T11:13:25.825Z,8.70
2019-04-05T11:15:53.481Z,8.70
2019-04-05T11:18:21.100Z,8.70
2019-04-05T11:20:49.684Z,8.70
2019-04-05T11:23:21.081Z,8.70
2019-04-05T11:25:46.972Z,8.80
2019-04-05T11:28:14.645Z,8.70
2019-04-05T11:30:46.554Z,8.70
2019-04-05T11:33:14.402Z,8.80
2019-04-05T11:35:42.529Z,8.80
2019-04-05T11:38:11.309Z,8.70
2019-04-05T11:40:39.187Z,8.70
2019-04-05T11:43:06.943Z,8.70
2019-04-05T11:45:34.677Z,8.70
2019-04-05T11:48:03.854Z,8.70
2019-04-05T11:50:34.794Z,8.70
2019-04-05T11:53:01.202Z,8.60
2019-04-05T11:55:28.884Z,8.70
2019-04-05T11:57:56.550Z,8.70
2019-04-05T12:00:31.370Z,8.70
2019-04-05T12:03:03.399Z,8.80
2019-04-05T12:05:31.414Z,8.80
2019-04-05T12:08:01.762Z,8.80
2019-04-05T12:10:30.524Z,8.80
2019-04-05T12:12:57.958Z,8.90
2019-04-05T12:15:25.620Z,8.90
2019-04-05T12:17:53.280Z,9.00
2019-04-05T12:20:21.022Z,8.90
2019-04-05T12:22:48.688Z,8.90
2019-04-05T12:25:16.372Z,8.90
2019-04-05T12:27:44.019Z,8.90
2019-04-05T12:30:14.786Z,9.00
2019-04-05T12:32:42.406Z,9.00
2019-04-05T12:35:10.156Z,9.00
2019-04-05T12:37:49.405Z,9.00
2019-04-05T12:40:10.383Z,9.10
2019-04-05T12:42:38.322Z,9.10
2019-04-05T12:45:06.574Z,9.10
2019-04-05T12:47:34.291Z,9.10
2019-04-05T12:50:01.952Z,9.10
2019-04-05T12:52:29.588Z,9.10
2019-04-05T12:54:57.225Z,9.10
2019-04-05T12:57:25.721Z,9.10
2019-04-05T12:59:56.548Z,9.20
2019-04-05T13:02:33.239Z,9.30
2019-04-05T13:04:53.341Z,9.30
2019-04-05T13:07:22.895Z,9.30
2019-04-05T13:09:54.991Z,9.30
2019-04-05T13:12:26.316Z,9.30
2019-04-05T13:14:53.419Z,9.30
2019-04-05T13:17:22.556Z,9.30
2019-04-05T13:19:50.207Z,9.30
2019-04-05T13:22:18.033Z,9.40
2019-04-05T13:24:45.678Z,9.30
2019-04-05T13:27:13.367Z,9.40
2019-04-05T13:29:41.010Z,9.40
2019-04-05T13:32:08.698Z,9.40
2019-04-05T13:34:36.430Z,9.40
2019-04-05T13:37:04.082Z,9.50
2019-04-05T13:39:31.743Z,9.40
2019-04-05T13:42:01.503Z,9.50
2019-04-05T13:44:29.462Z,9.50
2019-04-05T13:46:58.345Z,9.40
2019-04-05T13:49:25.979Z,9.40
2019-04-05T13:51:53.615Z,9.40
2019-04-05T13:54:21.339Z,9.40
2019-04-05T13:56:48.963Z,9.30
2019-04-05T13:59:16.657Z,9.30
2019-04-05T14:01:44.379Z,9.20
2019-04-05T14:04:12.000Z,9.20
2019-04-05T14:06:39.658Z,9.10
2019-04-05T14:09:10.232Z,9.10
2019-04-05T14:11:37.653Z,9.10
2019-04-05T14:14:06.460Z,9.10
2019-04-05T14:16:34.114Z,9.10
2019-04-05T14:19:01.817Z,9.10
2019-04-05T14:21:39.758Z,9.20
2019-04-05T14:23:58.946Z,9.10
2019-04-05T14:26:27.377Z,9.10
2019-04-05T14:28:56.097Z,9.10
2019-04-05T14:31:23.739Z,9.10
2019-04-05T14:33:54.238Z,9.10
2019-04-05T14:36:23.051Z,9.10
2019-04-05T14:38:50.278Z,9.00
2019-04-05T14:41:18.005Z,9.00
2019-04-05T14:43:45.689Z,9.00
2019-04-05T14:46:13.363Z,9.00
2019-04-05T14:48:41.018Z,8.90
2019-04-05T14:51:08.721Z,8.90
2019-04-05T14:53:36.336Z,8.90
2019-04-05T14:56:04.048Z,8.90
2019-04-05T14:58:31.729Z,8.90
2019-04-05T15:00:59.366Z,8.90
2019-04-05T15:03:27.096Z,8.80
2019-04-05T15:05:54.765Z,8.80
2019-04-05T15:08:22.403Z,8.80
2019-04-05T15:10:51.509Z,8.80
2019-04-05T15:13:19.221Z,8.80
2019-04-05T15:15:46.894Z,8.80
2019-04-05T15:18:14.556Z,8.80
2019-04-05T15:20:42.218Z,8.80
2019-04-05T15:23:13.472Z,8.80
2019-04-05T15:25:39.351Z,8.80
2019-04-05T15:28:07.036Z,8.70
2019-04-05T15:30:34.807Z,8.60
2019-04-05T15:33:04.026Z,8.60
2019-04-05T15:35:31.660Z,8.60
2019-04-05T15:38:01.284Z,8.60
2019-04-05T15:40:30.972Z,8.60
2019-04-05T15:42:58.917Z,8.60
2019-04-05T15:45:26.645Z,8.60
2019-04-05T15:47:55.524Z,8.70
2019-04-05T15:50:23.473Z,8.70
2019-04-05T15:52:51.333Z,8.70
2019-04-05T15:55:19.554Z,8.60
2019-04-05T15:57:47.506Z,8.60
2019-04-05T16:00:17.014Z,8.50
2019-04-05T16:02:44.675Z,8.50
2019-04-05T16:05:13.549Z,8.50
2019-04-05T16:07:41.194Z,8.40
2019-04-05T16:10:09.664Z,8.40
2019-04-05T16:12:37.281Z,8.40
2019-04-05T16:15:06.210Z,8.40
2019-04-05T16:17:33.856Z,8.40
2019-04-05T16:20:01.614Z,8.40
2019-04-05T16:22:31.554Z,8.40
2019-04-05T16:24:59.117Z,8.40
2019-04-05T16:27:26.775Z,8.40
2019-04-05T16:29:54.411Z,8.40
2019-04-05T16:32:22.233Z,8.40
2019-04-05T16:34:49.886Z,8.40
2019-04-05T16:37:17.504Z,8.40
2019-04-05T16:39:45.158Z,8.40
2019-04-05T16:42:12.970Z,8.40
2019-04-05T16:44:40.609Z,8.30
2019-04-05T16:47:08.224Z,8.30
2019-04-05T16:49:35.928Z,8.30
2019-04-05T16:52:03.856Z,8.30
2019-04-05T16:54:31.542Z,8.30
2019-04-05T16:56:59.180Z,8.20
2019-04-05T16:59:26.839Z,8.20
2019-04-05T17:01:56.792Z,8.20
2019-04-05T17:04:24.070Z,8.20
2019-04-05T17:06:51.869Z,8.20
2019-04-05T17:09:19.571Z,8.20
2019-04-05T17:11:47.219Z,8.10
2019-04-05T17:14:14.880Z,8.20
2019-04-05T17:16:42.527Z,8.20
2019-04-05T17:19:10.158Z,8.20
2019-04-05T17:21:37.886Z,8.20
2019-04-05T17:24:05.557Z,8.20
2019-04-05T17:26:33.228Z,8.20
2019-04-05T17:29:00.862Z,8.20
2019-04-05T17:31:28.561Z,8.10
2019-04-05T17:33:56.198Z,8.10
2019-04-05T17:36:23.847Z,8.10
2019-04-05T17:38:51.510Z,8.10
2019-04-05T17:41:19.173Z,8.10
2019-04-05T17:43:46.827Z,8.00
2019-04-05T17:46:14.458Z,8.00
2019-04-05T17:48:42.133Z,8.00
2019-04-05T17:51:09.766Z,8.00
2019-04-05T17:53:37.796Z,8.00
2019-04-05T17:56:05.485Z,8.00
2019-04-05T17:58:33.199Z,8.00
2019-04-05T18:01:00.859Z,7.90
2019-04-05T18:03:28.532Z,7.90
2019-04-05T18:05:56.229Z,7.90
2019-04-05T18:08:23.846Z,7.90
2019-04-05T18:10:51.494Z,7.90
2019-04-05T18:13:19.139Z,7.90
2019-04-05T18:15:52.609Z,7.90
2019-04-05T18:18:16.372Z,7.90
2019-04-05T18:20:44.022Z,8.00
2019-04-05T18:23:23.821Z,8.00
2019-04-05T18:25:41.127Z,8.00
2019-04-05T18:28:08.789Z,7.90
2019-04-05T18:30:36.446Z,7.90
2019-04-05T18:33:04.087Z,7.90
2019-04-05T18:35:31.766Z,7.90
2019-04-05T18:37:59.454Z,7.90
2019-04-05T18:40:39.205Z,8.00
2019-04-05T18:42:56.551Z,8.00
2019-04-05T18:45:24.232Z,8.00
2019-04-05T18:47:51.880Z,8.00
2019-04-05T18:50:19.556Z,8.00
2019-04-05T18:52:47.194Z,8.00
2019-04-05T18:55:14.844Z,8.00
2019-04-05T18:57:42.517Z,8.00
2019-04-05T19:00:10.382Z,8.00
2019-04-05T19:02:38.084Z,8.00
2019-04-05T19:05:06.187Z,8.00
2019-04-05T19:07:33.829Z,8.00
2019-04-05T19:10:01.533Z,8.00
2019-04-05T19:12:29.242Z,8.00
2019-04-05T19:14:57.818Z,8.00
2019-04-05T19:17:25.609Z,8.00
2019-04-05T19:19:53.253Z,8.00
2019-04-05T19:22:20.915Z,8.00
2019-04-05T19:24:48.563Z,8.00
2019-04-05T19:27:16.232Z,8.00
2019-04-05T19:29:43.909Z,8.00
2019-04-05T19:49:37.691Z,7.90
2019-04-05T19:52:05.343Z,7.90
2019-04-05T19:54:33.032Z,7.90
2019-04-05T19:57:00.663Z,7.90
2019-04-05T19:59:28.478Z,8.00
2019-04-05T20:01:56.254Z,8.00
2019-04-05T20:04:23.912Z,8.00
2019-04-05T20:06:58.409Z,8.00
2019-04-05T20:09:21.334Z,8.00
2019-04-05T20:11:49.018Z,7.90
2019-04-05T20:14:16.739Z,7.90
2019-04-05T20:16:44.379Z,7.90
2019-04-05T20:19:12.018Z,7.80
2019-04-05T20:21:39.700Z,7.80
2019-04-05T20:24:14.036Z,7.90
2019-04-05T20:26:36.937Z,7.90
2019-04-05T20:29:04.579Z,7.90
2019-04-05T20:31:32.212Z,7.90
2019-04-05T20:33:59.862Z,7.90
2019-04-05T20:36:27.495Z,7.80
2019-04-05T20:38:55.172Z,7.80
2019-04-05T20:41:22.799Z,7.70
2019-04-05T20:43:50.467Z,7.70
2019-04-05T20:46:18.111Z,7.80
2019-04-05T20:48:45.831Z,7.80
2019-04-05T20:51:13.490Z,7.80
2019-04-05T20:53:41.193Z,7.80
2019-04-05T20:56:09.800Z,7.80
2019-04-05T20:58:37.454Z,7.80
2019-04-05T21:01:05.242Z,7.70
2019-04-05T21:03:32.895Z,7.70
2019-04-05T21:06:00.569Z,7.70
2019-04-05T21:08:28.222Z,7.70
2019-04-05T21:10:55.891Z,7.70
2019-04-05T21:13:23.535Z,7.70
2019-04-05T21:15:51.230Z,7.70
2019-04-05T21:18:18.882Z,7.70
2019-04-05T21:20:46.577Z,7.70
2019-04-05T21:23:14.229Z,7.60
2019-04-05T21:25:41.877Z,7.60
2019-04-05T21:28:09.523Z,7.50
2019-04-05T21:30:37.199Z,7.50
2019-04-05T21:33:04.848Z,7.50
2019-04-05T21:35:32.496Z,7.40
2019-04-05T21:38:00.155Z,7.40
2019-04-05T21:40:27.805Z,7.40
2019-04-05T21:42:55.491Z,7.40
2019-04-05T21:45:23.161Z,7.40
2019-04-05T21:47:50.822Z,7.40
2019-04-05T21:50:18.491Z,7.30
2019-04-05T21:52:46.177Z,7.30
2019-04-05T21:55:13.825Z,7.30
2019-04-05T21:57:41.488Z,7.30
2019-04-05T22:00:16.799Z,7.30
2019-04-05T22:02:44.466Z,7.30
2019-04-05T22:05:12.148Z,7.20
2019-04-05T22:07:39.803Z,7.20
2019-04-05T22:10:07.476Z,7.20
2019-04-05T22:12:35.137Z,7.10
2019-04-05T22:15:02.818Z,7.10
2019-04-05T22:17:30.540Z,7.00
2019-04-05T22:19:58.175Z,7.00
2019-04-05T22:22:27.362Z,7.00
2019-04-05T22:24:59.396Z,7.00
2019-04-05T22:27:24.701Z,7.00
2019-04-05T22:29:52.335Z,7.00
2019-04-05T22:32:20.261Z,7.00
2019-04-05T22:34:47.891Z,7.00
2019-04-05T22:37:15.501Z,7.10
2019-04-05T22:39:43.176Z,7.10
2019-04-05T22:42:10.933Z,7.10
2019-04-05T22:44:41.420Z,7.20
2019-04-05T22:47:08.113Z,7.20
2019-04-05T22:49:35.747Z,7.20
2019-04-05T22:52:03.437Z,7.10
2019-04-05T22:54:31.117Z,7.10
2019-04-05T22:56:58.801Z,7.10
2019-04-05T22:59:26.419Z,7.10
2019-04-05T23:01:54.096Z,7.10
2019-04-05T23:04:21.758Z,7.00
2019-04-05T23:06:49.509Z,7.00
2019-04-05T23:09:17.141Z,7.00
2019-04-05T23:11:44.796Z,7.00
2019-04-05T23:14:12.451Z,7.00
2019-04-05T23:16:40.162Z,7.00
2019-04-05T23:19:07.845Z,7.00
2019-04-05T23:21:35.518Z,7.00
2019-04-05T23:24:03.249Z,7.00
2019-04-05T23:26:30.913Z,7.00
2019-04-05T23:28:58.488Z,7.10
2019-04-05T23:31:26.162Z,7.10
2019-04-05T23:33:53.815Z,7.10
2019-04-05T23:36:21.599Z,7.10
2019-04-05T23:38:49.239Z,7.10
2019-04-05T23:41:16.897Z,7.10
2019-04-05T23:43:44.577Z,7.10
2019-04-05T23:46:12.192Z,7.10
2019-04-05T23:48:39.851Z,7.10
2019-04-05T23:51:07.603Z,7.10
2019-04-05T23:53:35.200Z,7.10
2019-04-05T23:56:02.813Z,7.10
2019-04-05T23:58:30.498Z,7.10
